createdAt,value
2023-05-20T00:01:07.946Z,12.71
2023-05-20T00:03:36.145Z,12.72
2023-05-20T00:06:04.145Z,12.75
2023-05-20T00:08:32.164Z,12.71
2023-05-20T00:11:01.553Z,12.71
2023-05-20T00:13:29.601Z,12.69
2023-05-20T00:15:57.648Z,12.65
2023-05-20T00:18:25.658Z,12.65
2023-05-20T00:20:54.537Z,12.64
2023-05-20T00:23:22.482Z,12.62
2023-05-20T00:25:50.675Z,12.57
2023-05-20T00:28:21.215Z,12.55
2023-05-20T00:30:49.133Z,12.54
2023-05-20T00:33:17.194Z,12.55
2023-05-20T00:35:45.241Z,12.58
2023-05-20T00:38:13.190Z,12.57
2023-05-20T00:40:41.167Z,12.60
2023-05-20T00:43:09.139Z,12.60
2023-05-20T00:45:39.020Z,12.59
2023-05-20T00:48:08.491Z,12.58
2023-05-20T00:50:36.609Z,12.46
2023-05-20T00:53:05.131Z,12.45
2023-05-20T00:55:34.054Z,12.40
2023-05-20T00:58:02.230Z,11.47
2023-05-20T01:00:30.183Z,12.29
2023-05-20T01:03:00.022Z,12.23
2023-05-20T01:05:28.427Z,12.21
2023-05-20T01:07:56.707Z,12.22
2023-05-20T01:10:30.125Z,12.27
2023-05-20T01:13:03.050Z,12.28
2023-05-20T01:15:32.666Z,12.27
2023-05-20T01:18:06.287Z,12.26
2023-05-20T01:20:34.869Z,12.07
2023-05-20T01:23:04.549Z,12.16
2023-05-20T01:25:32.727Z,12.12
2023-05-20T01:28:00.934Z,12.10
2023-05-20T01:30:39.716Z,12.10
2023-05-20T01:33:12.049Z,12.14
2023-05-20T01:35:41.814Z,11.90
2023-05-20T01:38:11.379Z,12.06
2023-05-20T01:40:41.949Z,11.90
2023-05-20T01:43:10.889Z,11.92
2023-05-20T01:45:39.945Z,11.80
2023-05-20T01:48:07.985Z,11.79
2023-05-20T01:50:35.910Z,11.90
2023-05-20T01:53:03.959Z,11.93
2023-05-20T01:55:33.479Z,11.76
2023-05-20T01:58:01.760Z,11.61
2023-05-20T02:00:29.849Z,11.57
2023-05-20T02:02:57.941Z,11.57
2023-05-20T02:05:26.041Z,11.48
2023-05-20T02:07:53.997Z,11.41
2023-05-20T02:10:22.076Z,11.34
2023-05-20T02:12:51.415Z,11.33
2023-05-20T02:15:19.596Z,11.31
2023-05-20T02:17:49.548Z,11.31
2023-05-20T02:20:17.812Z,11.29
2023-05-20T02:22:45.821Z,11.27
2023-05-20T02:25:14.010Z,11.21
2023-05-20T02:27:42.096Z,11.21
2023-05-20T02:30:12.220Z,11.23
2023-05-20T02:32:40.225Z,11.22
2023-05-20T02:35:08.769Z,11.14
2023-05-20T02:37:39.052Z,11.14
2023-05-20T02:40:09.365Z,11.13
2023-05-20T02:42:37.407Z,11.16
2023-05-20T02:45:06.223Z,11.19
2023-05-20T02:47:35.654Z,11.15
2023-05-20T02:50:03.612Z,11.14
2023-05-20T02:52:31.590Z,11.07
2023-05-20T02:54:59.711Z,11.12
2023-05-20T02:57:28.492Z,11.16
2023-05-20T02:59:58.356Z,11.15
2023-05-20T03:02:26.294Z,11.07
2023-05-20T03:04:55.665Z,11.02
2023-05-20T03:07:23.715Z,10.97
2023-05-20T03:09:51.698Z,11.02
2023-05-20T03:12:20.036Z,11.09
2023-05-20T03:14:48.029Z,11.02
2023-05-20T03:17:16.212Z,11.02
2023-05-20T03:19:44.174Z,10.94
2023-05-20T03:22:13.582Z,10.79
2023-05-20T03:24:43.114Z,10.80
2023-05-20T03:27:11.520Z,10.98
2023-05-20T03:29:39.930Z,10.94
2023-05-20T03:32:10.144Z,10.90
2023-05-20T03:34:39.390Z,11.01
2023-05-20T03:37:07.459Z,10.99
2023-05-20T03:39:36.830Z,11.06
2023-05-20T03:42:04.993Z,11.11
2023-05-20T03:44:33.044Z,11.19
2023-05-20T03:47:01.067Z,11.19
2023-05-20T03:49:29.033Z,11.22
2023-05-20T03:51:57.018Z,11.16
2023-05-20T03:54:24.962Z,11.25
2023-05-20T03:56:54.917Z,11.20
2023-05-20T03:59:23.496Z,11.17
2023-05-20T04:01:51.537Z,11.27
2023-05-20T04:04:19.640Z,11.39
2023-05-20T04:06:47.729Z,11.41
2023-05-20T04:09:15.976Z,11.44
2023-05-20T04:11:43.909Z,11.47
2023-05-20T04:14:13.273Z,11.56
2023-05-20T04:16:41.340Z,11.74
2023-05-20T04:19:09.417Z,11.84
2023-05-20T04:21:37.565Z,11.85
2023-05-20T04:24:05.739Z,11.97
2023-05-20T04:26:35.481Z,12.06
2023-05-20T04:29:04.232Z,11.97
2023-05-20T04:31:33.639Z,12.44
2023-05-20T04:34:02.819Z,12.54
2023-05-20T04:36:32.538Z,12.64
2023-05-20T04:39:00.652Z,12.79
2023-05-20T04:41:28.727Z,12.79
2023-05-20T04:43:59.888Z,13.09
2023-05-20T04:46:29.255Z,13.34
2023-05-20T04:48:58.648Z,13.39
2023-05-20T04:51:26.667Z,13.55
2023-05-20T04:53:54.690Z,14.11
2023-05-20T04:56:22.710Z,14.84
2023-05-20T04:59:16.203Z,15.03
2023-05-20T05:01:44.261Z,14.89
2023-05-20T05:04:13.667Z,15.49
2023-05-20T05:06:41.870Z,15.82
2023-05-20T05:09:19.450Z,15.95
2023-05-20T05:32:24.476Z,20.10
2023-05-20T05:34:54.812Z,20.67
2023-05-20T05:37:22.778Z,21.36
2023-05-20T05:39:51.163Z,21.32
2023-05-20T05:42:19.219Z,20.33
2023-05-20T05:44:47.715Z,20.02
2023-05-20T05:47:16.002Z,19.49
2023-05-20T05:49:44.087Z,19.56
2023-05-20T05:52:14.310Z,19.82
2023-05-20T05:54:42.771Z,21.01
2023-05-20T05:57:12.150Z,21.50
2023-05-20T05:59:40.217Z,21.65
2023-05-20T06:02:10.051Z,22.05
2023-05-20T06:04:38.219Z,21.99
2023-05-20T06:07:06.803Z,21.80
2023-05-20T06:09:36.289Z,21.90
2023-05-20T06:12:07.270Z,22.67
2023-05-20T06:14:35.571Z,22.36
2023-05-20T06:17:16.070Z,22.22
2023-05-20T06:24:07.530Z,22.88
2023-05-20T06:26:38.154Z,23.77
2023-05-20T06:29:12.264Z,23.54
2023-05-20T06:31:40.998Z,23.30
2023-05-20T06:34:09.140Z,24.30
2023-05-20T06:36:37.931Z,24.46
2023-05-20T06:39:12.653Z,24.49
2023-05-20T06:41:50.507Z,23.95
2023-05-20T06:44:34.283Z,24.27
2023-05-20T07:00:41.852Z,25.29
2023-05-20T08:45:26.639Z,25.49
2023-05-20T09:04:17.777Z,26.53
2023-05-20T09:07:45.947Z,27.15
2023-05-20T09:10:16.862Z,25.95
2023-05-20T09:13:12.296Z,24.83
2023-05-20T09:15:40.956Z,24.39
2023-05-20T09:18:09.741Z,24.13
2023-05-20T09:29:21.970Z,25.63
2023-05-20T09:31:50.768Z,24.82
2023-05-20T10:13:41.169Z,27.47
2023-05-20T10:16:16.118Z,28.01
2023-05-20T10:18:56.701Z,27.93
2023-05-20T10:21:26.124Z,27.47
2023-05-20T10:32:00.217Z,27.73
2023-05-20T10:34:30.160Z,27.16
2023-05-20T10:37:01.825Z,25.73
2023-05-20T10:50:47.211Z,27.95
2023-05-20T11:00:44.772Z,26.43
2023-05-20T11:03:35.670Z,26.25
2023-05-20T11:06:29.961Z,26.98
2023-05-20T11:09:06.712Z,26.07
2023-05-20T11:11:34.917Z,26.09
2023-05-20T11:14:03.538Z,25.26
2023-05-20T11:16:31.799Z,24.56
2023-05-20T11:19:00.138Z,24.00
2023-05-20T11:21:29.759Z,23.93
2023-05-20T11:27:48.318Z,26.70
2023-05-20T11:30:32.107Z,26.00
2023-05-20T11:33:02.101Z,25.09
2023-05-20T11:35:32.331Z,23.97
2023-05-20T11:38:17.875Z,24.58
2023-05-20T11:41:17.051Z,24.41
2023-05-20T11:44:40.544Z,25.07
2023-05-20T11:47:27.795Z,25.88
2023-05-20T11:49:57.554Z,24.91
2023-05-20T11:56:17.639Z,24.46
2023-05-20T11:59:28.752Z,24.36
2023-05-20T12:01:56.966Z,24.62
2023-05-20T12:04:25.272Z,24.19
2023-05-20T12:07:10.454Z,25.20
2023-05-20T12:10:26.120Z,25.32
2023-05-20T12:12:55.848Z,25.54
2023-05-20T12:15:24.339Z,25.00
2023-05-20T12:17:53.767Z,24.84
2023-05-20T12:20:23.816Z,24.16
2023-05-20T12:22:53.254Z,23.66
2023-05-20T12:25:22.214Z,23.84
2023-05-20T12:27:50.705Z,24.51
2023-05-20T12:30:21.905Z,24.37
2023-05-20T12:32:52.312Z,24.06
2023-05-20T12:35:26.995Z,23.85
2023-05-20T12:37:55.094Z,22.90
2023-05-20T12:40:23.363Z,22.41
2023-05-20T12:42:51.367Z,21.85
2023-05-20T12:45:20.786Z,21.96
2023-05-20T12:47:49.559Z,21.78
2023-05-20T12:50:17.795Z,21.74
2023-05-20T12:52:45.798Z,21.56
2023-05-20T12:55:14.725Z,21.82
2023-05-20T12:57:43.134Z,21.17
2023-05-20T13:00:12.928Z,21.69
2023-05-20T13:02:43.520Z,21.71
2023-05-20T13:05:12.422Z,21.58
2023-05-20T13:07:40.605Z,21.39
2023-05-20T13:10:10.597Z,21.31
2023-05-20T13:12:38.958Z,21.40
2023-05-20T13:15:08.285Z,21.76
2023-05-20T13:17:36.270Z,21.51
2023-05-20T13:20:06.768Z,22.05
2023-05-20T13:22:34.956Z,22.81
2023-05-20T13:25:03.030Z,22.62
2023-05-20T13:27:31.143Z,22.48
2023-05-20T13:29:59.565Z,22.46
2023-05-20T13:32:28.576Z,22.58
2023-05-20T13:34:59.835Z,22.47
2023-05-20T13:37:30.124Z,22.14
2023-05-20T13:39:58.155Z,22.29
2023-05-20T13:42:26.242Z,22.35
2023-05-20T13:44:54.352Z,21.48
2023-05-20T13:47:22.372Z,21.03
2023-05-20T13:49:50.547Z,20.63
2023-05-20T13:52:18.618Z,20.77
2023-05-20T13:54:48.774Z,20.82
2023-05-20T13:57:17.024Z,20.39
2023-05-20T13:59:45.162Z,20.06
2023-05-20T14:02:13.239Z,20.23
2023-05-20T14:04:44.945Z,20.08
2023-05-20T14:07:13.028Z,19.98
2023-05-20T14:09:41.154Z,20.02
2023-05-20T14:12:10.908Z,19.83
2023-05-20T14:14:38.854Z,20.19
2023-05-20T14:17:06.894Z,20.39
2023-05-20T14:19:35.031Z,20.27
2023-05-20T14:22:03.457Z,20.23
2023-05-20T14:24:31.534Z,20.10
2023-05-20T14:26:59.610Z,19.88
2023-05-20T14:29:29.009Z,19.89
2023-05-20T14:31:57.136Z,19.82
2023-05-20T14:34:25.673Z,19.91
2023-05-20T14:36:53.771Z,19.71
2023-05-20T14:39:22.153Z,19.85
2023-05-20T14:41:50.606Z,19.82
2023-05-20T14:44:18.577Z,19.91
2023-05-20T14:46:48.639Z,19.97
2023-05-20T14:49:16.745Z,19.88
2023-05-20T14:51:45.152Z,19.87
2023-05-20T14:54:14.334Z,19.80
2023-05-20T14:56:42.376Z,19.63
2023-05-20T14:59:11.049Z,19.36
2023-05-20T15:01:39.125Z,19.40
2023-05-20T15:04:09.319Z,19.37
2023-05-20T15:06:37.622Z,19.33
2023-05-20T15:09:06.972Z,19.23
2023-05-20T15:11:34.970Z,19.24
2023-05-20T15:14:03.065Z,19.29
2023-05-20T15:16:31.150Z,19.31
2023-05-20T15:18:59.428Z,19.22
2023-05-20T15:21:28.794Z,18.31
2023-05-20T15:23:56.945Z,19.13
2023-05-20T15:26:26.212Z,19.01
2023-05-20T15:28:54.404Z,19.29
2023-05-20T15:31:22.549Z,19.43
2023-05-20T15:33:50.786Z,19.46
2023-05-20T15:36:19.059Z,19.51
2023-05-20T15:38:48.426Z,19.26
2023-05-20T15:41:16.444Z,19.34
2023-05-20T15:43:44.585Z,19.27
2023-05-20T15:46:12.970Z,18.82
2023-05-20T15:48:41.550Z,19.10
2023-05-20T15:51:09.712Z,19.04
2023-05-20T15:53:40.054Z,18.98
2023-05-20T15:56:12.675Z,18.94
2023-05-20T15:58:40.888Z,18.94
2023-05-20T16:01:09.221Z,19.00
2023-05-20T16:03:37.490Z,18.85
2023-05-20T16:06:08.157Z,18.80
2023-05-20T16:08:37.760Z,19.08
2023-05-20T16:11:06.601Z,19.13
2023-05-20T16:13:36.081Z,19.20
2023-05-20T16:16:04.243Z,19.11
2023-05-20T16:18:32.276Z,19.16
2023-05-20T16:23:51.069Z,19.09
2023-05-20T16:26:19.094Z,19.22
2023-05-20T16:28:48.583Z,19.24
2023-05-20T16:31:16.851Z,19.31
2023-05-20T16:33:45.192Z,19.27
2023-05-20T16:36:13.425Z,19.29
2023-05-20T16:38:41.404Z,19.20
2023-05-20T16:41:09.453Z,19.32
2023-05-20T16:43:37.681Z,19.30
2023-05-20T16:46:07.136Z,19.29
2023-05-20T16:48:35.145Z,19.29
2023-05-20T16:51:03.352Z,19.28
2023-05-20T16:53:31.464Z,19.22
2023-05-20T16:55:59.486Z,19.27
2023-05-20T16:58:27.474Z,19.23
2023-05-20T17:00:55.893Z,19.22
2023-05-20T17:03:25.430Z,19.19
2023-05-20T17:05:53.571Z,19.16
2023-05-20T17:08:21.867Z,19.12
2023-05-20T17:10:52.469Z,19.11
2023-05-20T17:13:22.243Z,19.07
2023-05-20T17:15:50.312Z,18.99
2023-05-20T17:18:18.271Z,18.93
2023-05-20T17:20:48.112Z,18.70
2023-05-20T17:23:16.210Z,18.84
2023-05-20T17:25:44.458Z,18.80
2023-05-20T17:28:12.594Z,18.74
2023-05-20T17:30:40.734Z,18.70
2023-05-20T17:33:08.863Z,18.60
2023-05-20T17:35:37.625Z,18.56
2023-05-20T17:38:06.924Z,18.52
2023-05-20T17:40:35.108Z,18.46
2023-05-20T17:43:03.258Z,18.45
2023-05-20T17:45:31.439Z,18.39
2023-05-20T17:47:59.528Z,18.10
2023-05-20T17:50:27.647Z,18.35
2023-05-20T17:52:55.713Z,18.31
2023-05-20T17:55:25.205Z,18.28
2023-05-20T17:57:53.237Z,18.27
2023-05-20T18:00:21.749Z,18.23
2023-05-20T18:02:50.055Z,18.20
2023-05-20T18:05:18.298Z,18.16
2023-05-20T18:07:46.449Z,18.17
2023-05-20T18:10:14.470Z,18.14
2023-05-20T18:12:45.350Z,18.13
2023-05-20T18:15:14.522Z,18.16
2023-05-20T18:17:42.621Z,18.15
2023-05-20T18:20:11.573Z,18.14
2023-05-20T18:22:42.757Z,18.12
2023-05-20T18:25:11.583Z,18.07
2023-05-20T18:27:39.570Z,18.07
2023-05-20T18:30:10.743Z,18.00
2023-05-20T18:32:39.400Z,18.02
2023-05-20T18:35:08.939Z,18.03
2023-05-20T18:37:37.063Z,18.02
2023-05-20T18:40:06.584Z,17.89
2023-05-20T18:42:34.557Z,18.01
2023-05-20T18:45:02.603Z,18.01
2023-05-20T18:47:32.377Z,17.48
2023-05-20T18:50:00.813Z,17.92
2023-05-20T18:52:29.091Z,17.86
2023-05-20T18:54:57.129Z,17.84
2023-05-20T18:57:25.101Z,17.80
2023-05-20T18:59:53.122Z,17.78
2023-05-20T19:02:21.396Z,17.75
2023-05-20T19:04:50.799Z,17.72
2023-05-20T19:07:18.878Z,17.63
2023-05-20T19:09:47.102Z,17.65
2023-05-20T19:12:15.086Z,17.75
2023-05-20T19:14:43.141Z,17.73
2023-05-20T19:17:11.322Z,17.68
2023-05-20T19:19:39.510Z,17.47
2023-05-20T19:22:08.954Z,17.33
2023-05-20T19:24:36.996Z,17.27
2023-05-20T19:27:05.203Z,17.20
2023-05-20T19:29:33.245Z,17.14
2023-05-20T19:32:01.632Z,16.96
2023-05-20T19:34:30.066Z,16.98
2023-05-20T19:36:58.071Z,16.90
2023-05-20T19:39:27.899Z,16.78
2023-05-20T19:41:55.930Z,16.61
2023-05-20T19:44:24.649Z,16.56
2023-05-20T19:46:53.100Z,16.52
2023-05-20T19:49:21.574Z,16.34
2023-05-20T19:51:49.638Z,16.24
2023-05-20T19:54:17.598Z,16.19
2023-05-20T19:56:47.099Z,16.10
2023-05-20T19:59:15.148Z,16.10
2023-05-20T20:01:43.280Z,16.02
2023-05-20T20:04:13.324Z,15.98
2023-05-20T20:06:41.341Z,15.94
2023-05-20T20:09:09.522Z,15.85
2023-05-20T20:11:37.613Z,15.58
2023-05-20T20:14:07.106Z,15.54
2023-05-20T20:16:36.079Z,15.49
2023-05-20T20:19:04.902Z,15.56
2023-05-20T20:21:32.892Z,15.61
2023-05-20T20:24:01.468Z,15.69
2023-05-20T20:26:31.505Z,15.65
2023-05-20T20:28:59.541Z,15.78
2023-05-20T20:31:29.132Z,15.77
2023-05-20T20:33:57.582Z,15.80
2023-05-20T20:36:25.900Z,15.76
2023-05-20T20:38:53.808Z,15.83
2023-05-20T20:41:21.851Z,15.77
2023-05-20T20:43:50.637Z,15.59
2023-05-20T20:46:18.759Z,15.72
2023-05-20T20:48:48.110Z,15.71
2023-05-20T20:51:16.906Z,15.71
2023-05-20T20:53:46.449Z,15.56
2023-05-20T20:56:14.449Z,15.70
2023-05-20T20:58:42.821Z,15.65
2023-05-20T21:01:11.090Z,15.57
2023-05-20T21:03:40.645Z,15.41
2023-05-20T21:06:10.189Z,15.24
2023-05-20T21:08:38.218Z,15.21
2023-05-20T21:11:06.536Z,15.05
2023-05-20T21:13:34.604Z,14.99
2023-05-20T21:16:02.824Z,14.89
2023-05-20T21:18:30.787Z,14.84
2023-05-20T21:20:58.902Z,14.77
2023-05-20T21:23:28.362Z,14.71
2023-05-20T21:25:56.426Z,14.66
2023-05-20T21:28:24.699Z,14.62
2023-05-20T21:30:52.905Z,14.56
2023-05-20T21:33:21.345Z,14.41
2023-05-20T21:35:49.434Z,14.34
2023-05-20T21:38:17.516Z,14.32
2023-05-20T21:40:46.942Z,14.36
2023-05-20T21:43:15.317Z,14.36
2023-05-20T21:45:43.399Z,14.25
2023-05-20T21:48:11.378Z,13.96
2023-05-20T21:50:39.373Z,14.23
2023-05-20T21:53:07.445Z,14.18
2023-05-20T21:55:35.798Z,14.12
2023-05-20T21:58:05.269Z,14.15
2023-05-20T22:00:33.914Z,14.14
2023-05-20T22:03:02.191Z,14.08
2023-05-20T22:05:30.603Z,14.06
2023-05-20T22:08:00.547Z,14.04
2023-05-20T22:10:28.521Z,14.03
2023-05-20T22:12:58.344Z,13.99
2023-05-20T22:15:28.645Z,13.88
2023-05-20T22:17:57.331Z,13.82
2023-05-20T22:20:25.789Z,13.77
2023-05-20T22:22:53.845Z,13.74
2023-05-20T22:25:21.925Z,13.73
2023-05-20T22:27:50.355Z,13.65
2023-05-20T22:30:18.860Z,13.69
2023-05-20T22:32:48.373Z,13.71
2023-05-20T22:35:16.938Z,13.70
2023-05-20T22:37:45.013Z,13.68
2023-05-20T22:40:13.675Z,13.63
2023-05-20T22:42:41.657Z,13.62
2023-05-20T22:45:11.143Z,13.62
2023-05-20T22:47:39.247Z,13.63
2023-05-20T22:50:10.217Z,13.62
2023-05-20T22:52:38.256Z,13.64
2023-05-20T22:55:07.001Z,13.63
2023-05-20T22:57:35.000Z,13.37
2023-05-20T23:00:04.673Z,13.34
2023-05-20T23:02:32.920Z,13.39
2023-05-20T23:05:01.369Z,13.41
2023-05-20T23:07:31.378Z,13.43
2023-05-20T23:09:59.325Z,13.49
2023-05-20T23:12:27.400Z,13.63
2023-05-20T23:14:55.445Z,13.68
2023-05-20T23:17:23.490Z,13.72
2023-05-20T23:19:51.529Z,13.70
2023-05-20T23:22:19.558Z,13.62
2023-05-20T23:24:48.917Z,13.67
2023-05-20T23:27:16.941Z,13.74
2023-05-20T23:29:45.020Z,13.77
2023-05-20T23:32:13.498Z,13.81
2023-05-20T23:34:41.703Z,13.79
2023-05-20T23:37:09.758Z,13.79
2023-05-20T23:39:37.782Z,13.77
2023-05-20T23:42:07.268Z,13.71
2023-05-20T23:44:35.171Z,13.74
2023-05-20T23:47:03.887Z,13.76
2023-05-20T23:49:32.132Z,13.73
2023-05-20T23:52:00.134Z,13.76
2023-05-20T23:54:28.186Z,13.67
2023-05-20T23:56:56.491Z,13.60
2023-05-20T23:59:25.856Z,13.66
